createdAt,value
2016-07-03T00:00:25.662Z,0
2016-07-03T00:01:25.682Z,0
2016-07-03T00:02:40.615Z,0
2016-07-03T00:03:25.729Z,0
2016-07-03T00:04:25.756Z,0
2016-07-03T00:05:25.793Z,0
2016-07-03T00:06:26.417Z,0
2016-07-03T00:07:25.835Z,0
2016-07-03T00:08:25.850Z,0
2016-07-03T00:09:25.879Z,0
2016-07-03T00:10:25.916Z,0
2016-07-03T00:11:40.835Z,0
2016-07-03T00:12:25.963Z,0
2016-07-03T00:13:25.983Z,0
2016-07-03T00:14:26.018Z,0
2016-07-03T00:15:26.646Z,0
2016-07-03T00:16:26.050Z,0
2016-07-03T00:17:26.087Z,0
2016-07-03T00:18:26.107Z,0
2016-07-03T00:19:26.142Z,0
2016-07-03T00:20:26.156Z,0
2016-07-03T00:21:26.189Z,0
2016-07-03T00:22:26.820Z,0
2016-07-03T00:23:41.128Z,0
2016-07-03T00:24:26.262Z,0
2016-07-03T00:25:26.278Z,0
2016-07-03T00:26:41.197Z,0
2016-07-03T00:27:41.214Z,0
2016-07-03T00:28:41.243Z,0
2016-07-03T00:29:26.373Z,0
2016-07-03T00:30:26.399Z,0
2016-07-03T00:31:26.446Z,0
2016-07-03T00:32:41.369Z,0
2016-07-03T00:33:41.381Z,0
2016-07-03T00:34:41.414Z,0
2016-07-03T00:35:41.435Z,0
2016-07-03T00:37:41.482Z,0
2016-07-03T00:38:27.219Z,0
2016-07-03T00:39:26.644Z,0
2016-07-03T00:40:26.651Z,0
2016-07-03T00:41:26.690Z,0
2016-07-03T00:42:26.699Z,0
2016-07-03T00:43:56.538Z,0
2016-07-03T00:44:26.772Z,0
2016-07-03T00:45:26.787Z,0
2016-07-03T00:46:26.820Z,0
2016-07-03T00:48:26.852Z,0
2016-07-03T00:49:41.784Z,0
2016-07-03T00:50:26.913Z,0
2016-07-03T00:51:26.940Z,0
2016-07-03T00:53:26.985Z,0
2016-07-03T00:54:27.007Z,0
2016-07-03T00:55:27.033Z,0
2016-07-03T00:56:27.065Z,0
2016-07-03T00:58:42.007Z,0
2016-07-03T00:59:27.133Z,0
2016-07-03T01:00:27.767Z,0
2016-07-03T01:01:27.206Z,0
2016-07-03T01:02:27.198Z,0
2016-07-03T01:03:27.231Z,0
2016-07-03T01:04:27.259Z,0
2016-07-03T01:05:27.287Z,0
2016-07-03T01:06:27.913Z,0
2016-07-03T01:07:27.338Z,0
2016-07-03T01:08:27.959Z,0
2016-07-03T01:10:27.403Z,0
2016-07-03T01:11:42.331Z,0
2016-07-03T01:12:27.434Z,0
2016-07-03T01:13:27.454Z,0
2016-07-03T01:14:42.388Z,0
2016-07-03T01:15:27.509Z,0
2016-07-03T01:16:27.541Z,0
2016-07-03T01:17:28.174Z,0
2016-07-03T01:18:27.593Z,0
2016-07-03T01:19:27.632Z,0
2016-07-03T01:20:27.652Z,0
2016-07-03T01:21:27.673Z,0
2016-07-03T01:22:42.608Z,0
2016-07-03T01:23:27.734Z,0
2016-07-03T01:24:27.753Z,0
2016-07-03T01:25:27.773Z,0
2016-07-03T01:27:27.822Z,0
2016-07-03T01:28:42.743Z,0
2016-07-03T01:29:27.868Z,0
2016-07-03T01:30:42.794Z,0
2016-07-03T01:31:27.931Z,0
2016-07-03T01:32:27.949Z,0
2016-07-03T01:33:27.964Z,0
2016-07-03T01:34:27.993Z,0
2016-07-03T01:35:28.016Z,0
2016-07-03T01:36:28.036Z,0
2016-07-03T01:37:28.063Z,0
2016-07-03T01:38:28.086Z,0
2016-07-03T01:39:28.724Z,0
2016-07-03T01:40:43.039Z,0
2016-07-03T01:41:28.180Z,0
2016-07-03T01:42:28.193Z,0
2016-07-03T01:43:28.219Z,0
2016-07-03T01:44:28.251Z,0
2016-07-03T01:45:28.273Z,0
2016-07-03T01:46:58.090Z,0
2016-07-03T01:47:28.322Z,0
2016-07-03T01:48:28.348Z,0
2016-07-03T01:49:28.356Z,0
2016-07-03T01:50:43.294Z,0
2016-07-03T01:51:28.413Z,0
2016-07-03T01:52:43.331Z,0
2016-07-03T01:55:29.100Z,0
2016-07-03T01:56:28.528Z,0
2016-07-03T01:57:28.554Z,0
2016-07-03T01:58:29.187Z,0
2016-07-03T01:59:28.596Z,0
2016-07-03T02:00:28.637Z,0
2016-07-03T02:01:43.564Z,0
2016-07-03T02:02:58.487Z,0
2016-07-03T02:03:28.717Z,0
2016-07-03T02:04:28.744Z,0
2016-07-03T02:05:43.657Z,0
2016-07-03T02:06:28.791Z,0
2016-07-03T02:07:28.815Z,0
2016-07-03T02:08:28.842Z,0
2016-07-03T02:09:43.763Z,0
2016-07-03T02:10:43.793Z,0
2016-07-03T02:11:28.904Z,0
2016-07-03T02:12:28.933Z,0
2016-07-03T02:13:28.949Z,0
2016-07-03T02:14:43.886Z,0
2016-07-03T02:15:43.908Z,0
2016-07-03T02:16:29.033Z,0
2016-07-03T02:17:29.058Z,0
2016-07-03T02:18:43.981Z,0
2016-07-03T02:19:29.106Z,0
2016-07-03T02:20:29.118Z,0
2016-07-03T02:21:29.142Z,0
2016-07-03T02:22:29.176Z,0
2016-07-03T02:23:29.201Z,0
2016-07-03T02:24:29.219Z,0
2016-07-03T02:25:29.254Z,0
2016-07-03T02:26:29.276Z,0
2016-07-03T02:27:44.194Z,0
2016-07-03T02:28:29.327Z,0
2016-07-03T02:29:29.345Z,0
2016-07-03T02:30:29.373Z,0
2016-07-03T02:31:29.390Z,0
2016-07-03T02:32:29.428Z,0
2016-07-03T02:33:44.355Z,0
2016-07-03T02:34:29.481Z,0
2016-07-03T02:35:29.506Z,0
2016-07-03T02:36:44.433Z,0
2016-07-03T02:37:30.150Z,0
2016-07-03T02:38:29.575Z,0
2016-07-03T02:40:29.608Z,0
2016-07-03T02:41:29.635Z,0
2016-07-03T02:42:29.674Z,0
2016-07-03T02:43:29.691Z,0
2016-07-03T02:44:29.726Z,5
2016-07-03T02:45:29.754Z,5
2016-07-03T02:46:29.776Z,5
2016-07-03T02:47:29.805Z,5
2016-07-03T02:48:29.826Z,5
2016-07-03T02:49:29.848Z,5
2016-07-03T02:50:29.873Z,5
2016-07-03T02:51:29.889Z,5
2016-07-03T02:52:29.923Z,5
2016-07-03T02:53:29.950Z,5
2016-07-03T02:54:29.971Z,5
2016-07-03T02:55:29.988Z,5
2016-07-03T02:56:44.917Z,10
2016-07-03T02:57:30.034Z,10
2016-07-03T02:58:30.055Z,10
2016-07-03T03:00:30.122Z,10
2016-07-03T03:01:30.135Z,10
2016-07-03T03:02:30.151Z,10
2016-07-03T03:03:30.177Z,10
2016-07-03T03:04:45.108Z,15
2016-07-03T03:05:45.132Z,15
2016-07-03T03:06:30.241Z,15
2016-07-03T03:07:30.272Z,15
2016-07-03T03:08:30.305Z,15
2016-07-03T03:09:30.332Z,15
2016-07-03T03:10:30.352Z,15
2016-07-03T03:11:30.376Z,20
2016-07-03T03:12:30.403Z,20
2016-07-03T03:13:30.421Z,20
2016-07-03T03:14:30.448Z,20
2016-07-03T03:15:30.465Z,20
2016-07-03T03:16:30.492Z,20
2016-07-03T03:17:30.520Z,25
2016-07-03T03:18:30.546Z,25
2016-07-03T03:19:30.564Z,25
2016-07-03T03:20:45.498Z,30
2016-07-03T03:22:00.423Z,30
2016-07-03T03:22:30.653Z,35
2016-07-03T03:23:30.674Z,35
2016-07-03T03:24:30.699Z,35
2016-07-03T03:27:30.765Z,40
2016-07-03T03:28:45.700Z,45
2016-07-03T03:29:45.718Z,45
2016-07-03T03:30:30.838Z,45
2016-07-03T03:31:30.857Z,45
2016-07-03T03:32:30.889Z,50
2016-07-03T03:33:30.912Z,50
2016-07-03T03:34:45.840Z,50
2016-07-03T03:35:30.954Z,50
2016-07-03T03:36:31.585Z,55
2016-07-03T03:38:00.810Z,55
2016-07-03T03:38:31.053Z,55
2016-07-03T03:39:31.051Z,55
2016-07-03T03:40:31.070Z,60
2016-07-03T03:41:31.077Z,60
2016-07-03T03:43:31.138Z,65
2016-07-03T03:44:31.156Z,85
2016-07-03T03:45:31.199Z,95
2016-07-03T03:46:31.225Z,100
2016-07-03T03:47:31.267Z,95
2016-07-03T03:48:31.282Z,70
2016-07-03T03:50:31.318Z,75
2016-07-03T03:51:31.344Z,75
2016-07-03T03:53:46.300Z,75
2016-07-03T03:54:31.424Z,75
2016-07-03T03:55:31.455Z,80
2016-07-03T03:56:31.479Z,80
2016-07-03T03:57:32.114Z,80
2016-07-03T03:58:31.522Z,80
2016-07-03T03:59:31.553Z,85
2016-07-03T04:00:31.566Z,85
2016-07-03T04:02:31.625Z,90
2016-07-03T04:03:31.645Z,115
2016-07-03T04:04:31.666Z,115
2016-07-03T04:05:31.698Z,90
2016-07-03T04:06:46.618Z,100
2016-07-03T04:09:01.568Z,95
2016-07-03T04:09:31.784Z,95
2016-07-03T04:11:31.834Z,150
2016-07-03T04:12:31.870Z,130
2016-07-03T04:13:31.898Z,325
2016-07-03T04:14:31.908Z,770
2016-07-03T04:15:31.945Z,990
2016-07-03T04:17:31.977Z,1005
2016-07-03T04:18:32.016Z,1055
2016-07-03T04:20:32.064Z,1045
2016-07-03T04:21:32.087Z,1075
2016-07-03T04:22:32.114Z,1125
2016-07-03T04:23:32.132Z,1110
2016-07-03T04:24:32.173Z,1095
2016-07-03T04:25:32.189Z,1105
2016-07-03T04:26:32.227Z,1105
2016-07-03T04:27:32.254Z,1120
2016-07-03T04:28:47.171Z,1140
2016-07-03T04:29:32.307Z,1115
2016-07-03T04:30:32.331Z,1105
2016-07-03T04:32:47.290Z,1190
2016-07-03T04:33:32.428Z,1210
2016-07-03T04:35:32.476Z,1120
2016-07-03T04:37:32.525Z,1155
2016-07-03T04:39:32.589Z,1230
2016-07-03T04:40:47.513Z,1225
2016-07-03T04:41:32.651Z,1245
2016-07-03T04:42:32.679Z,1270
2016-07-03T04:43:33.319Z,1225
2016-07-03T04:44:32.723Z,1225
2016-07-03T04:45:47.671Z,1235
2016-07-03T04:46:47.690Z,1235
2016-07-03T04:47:32.830Z,1290
2016-07-03T04:48:32.854Z,1280
2016-07-03T04:49:32.884Z,1250
2016-07-03T04:50:32.908Z,1315
2016-07-03T04:51:32.952Z,1325
2016-07-03T04:52:32.981Z,1325
2016-07-03T04:53:33.021Z,1340
2016-07-03T04:54:33.042Z,1285
2016-07-03T04:55:33.082Z,1305
2016-07-03T04:57:49.090Z,1385
2016-07-03T04:58:33.162Z,1395
2016-07-03T04:59:48.094Z,1405
2016-07-03T05:00:48.132Z,1375
2016-07-03T05:01:33.862Z,1290
2016-07-03T05:02:48.204Z,1280
2016-07-03T05:03:33.324Z,1330
2016-07-03T05:04:48.256Z,1410
2016-07-03T05:05:48.292Z,1410
2016-07-03T05:06:33.415Z,1380
2016-07-03T05:07:33.448Z,1395
2016-07-03T05:08:33.469Z,1535
2016-07-03T05:09:34.122Z,1570
2016-07-03T05:10:33.542Z,1420
2016-07-03T05:11:48.462Z,1440
2016-07-03T05:13:03.413Z,1485
2016-07-03T05:13:33.643Z,1505
2016-07-03T05:14:48.562Z,1525
2016-07-03T05:15:33.696Z,1525
2016-07-03T05:16:34.318Z,1480
2016-07-03T05:17:33.758Z,1455
2016-07-03T05:18:33.788Z,1460
2016-07-03T05:19:33.843Z,1525
2016-07-03T05:20:33.862Z,1525
2016-07-03T05:21:33.888Z,1545
2016-07-03T05:22:33.928Z,1535
2016-07-03T05:23:33.982Z,1480
2016-07-03T05:24:34.000Z,1500
2016-07-03T05:25:34.648Z,1555
2016-07-03T05:27:34.123Z,1540
2016-07-03T05:28:49.048Z,1535
2016-07-03T05:29:34.184Z,1545
2016-07-03T05:30:34.201Z,1555
2016-07-03T05:31:34.241Z,1500
2016-07-03T05:32:34.275Z,1495
2016-07-03T05:33:34.310Z,1535
2016-07-03T05:34:34.338Z,1555
2016-07-03T05:35:34.994Z,1495
2016-07-03T05:37:34.449Z,1525
2016-07-03T05:38:34.477Z,1540
2016-07-03T05:39:34.504Z,1510
2016-07-03T05:40:34.548Z,1515
2016-07-03T05:41:34.593Z,1560
2016-07-03T05:42:35.225Z,1570
2016-07-03T05:44:04.458Z,1500
2016-07-03T05:44:34.691Z,1430
2016-07-03T05:45:34.722Z,1330
2016-07-03T05:46:34.763Z,1420
2016-07-03T05:47:34.797Z,1550
2016-07-03T05:48:35.435Z,1550
2016-07-03T05:49:34.872Z,1485
2016-07-03T05:50:34.918Z,1500
2016-07-03T05:51:49.832Z,1575
2016-07-03T05:52:34.964Z,1565
2016-07-03T05:53:34.995Z,1505
2016-07-03T05:54:49.941Z,1500
2016-07-03T05:55:49.978Z,1510
2016-07-03T05:56:35.718Z,1540
2016-07-03T05:58:35.182Z,1540
2016-07-03T05:59:35.219Z,1500
2016-07-03T06:00:50.152Z,1465
2016-07-03T06:01:35.894Z,1470
2016-07-03T06:02:35.327Z,1520
2016-07-03T06:03:35.370Z,1475
2016-07-03T06:04:36.006Z,1495
2016-07-03T06:05:35.427Z,1525
2016-07-03T06:06:35.469Z,1535
2016-07-03T06:08:35.541Z,1510
2016-07-03T06:09:35.584Z,1490
2016-07-03T06:10:35.617Z,1520
2016-07-03T06:11:35.655Z,1505
2016-07-03T06:12:35.689Z,1455
2016-07-03T06:13:50.626Z,1455
2016-07-03T06:14:35.759Z,1460
2016-07-03T06:15:51.302Z,1470
2016-07-03T06:16:35.831Z,1450
2016-07-03T06:18:35.903Z,1445
2016-07-03T06:19:35.935Z,1440
2016-07-03T06:20:35.972Z,1420
2016-07-03T06:21:36.012Z,1430
2016-07-03T06:22:36.058Z,1445
2016-07-03T06:23:50.997Z,1445
2016-07-03T06:24:51.027Z,1485
2016-07-03T06:25:36.160Z,1455
2016-07-03T06:26:36.198Z,1405
2016-07-03T06:27:36.231Z,1460
2016-07-03T06:28:36.276Z,1480
2016-07-03T06:30:36.349Z,1380
2016-07-03T06:32:51.312Z,1335
2016-07-03T06:33:51.354Z,1380
2016-07-03T06:34:51.395Z,1340
2016-07-03T06:35:51.426Z,1330
2016-07-03T06:36:36.574Z,1325
2016-07-03T06:37:36.612Z,1310
2016-07-03T06:38:36.638Z,1320
2016-07-03T06:39:36.674Z,1310
2016-07-03T06:40:36.711Z,1325
2016-07-03T06:41:36.735Z,1335
2016-07-03T06:42:37.385Z,1335
2016-07-03T06:43:36.815Z,1350
2016-07-03T06:44:36.860Z,1335
2016-07-03T06:45:51.796Z,1285
2016-07-03T06:46:51.831Z,1285
2016-07-03T06:47:51.880Z,1315
2016-07-03T06:48:37.010Z,1325
2016-07-03T06:49:37.033Z,1295
2016-07-03T06:50:51.974Z,1280
2016-07-03T06:52:37.135Z,1245
2016-07-03T06:53:37.191Z,1250
2016-07-03T06:54:37.222Z,1170
2016-07-03T06:55:37.259Z,1200
2016-07-03T06:56:37.307Z,1210
2016-07-03T06:57:52.243Z,940
2016-07-03T06:58:37.375Z,1070
2016-07-03T06:59:37.409Z,1060
2016-07-03T07:00:37.463Z,990
2016-07-03T07:01:37.496Z,1135
2016-07-03T07:04:37.620Z,1080
2016-07-03T07:05:37.631Z,1045
2016-07-03T07:06:37.693Z,955
2016-07-03T07:07:37.710Z,265
2016-07-03T07:08:37.759Z,225
2016-07-03T07:09:37.777Z,870
2016-07-03T07:10:37.835Z,820
2016-07-03T07:11:52.761Z,785
2016-07-03T07:13:37.933Z,720
2016-07-03T07:14:37.967Z,695
2016-07-03T07:16:39.243Z,655
2016-07-03T07:17:38.082Z,650
2016-07-03T07:19:38.140Z,645
2016-07-03T07:20:38.187Z,655
2016-07-03T07:21:38.227Z,705
2016-07-03T07:22:38.256Z,755
2016-07-03T07:23:38.298Z,775
2016-07-03T07:24:38.941Z,810
2016-07-03T07:25:38.371Z,860
2016-07-03T07:26:38.400Z,1015
2016-07-03T07:27:38.438Z,1280
2016-07-03T07:28:38.470Z,1470
2016-07-03T07:29:38.500Z,1365
2016-07-03T07:30:38.540Z,1285
2016-07-03T07:31:39.187Z,1195
2016-07-03T07:33:38.648Z,1270
2016-07-03T07:34:38.718Z,1285
2016-07-03T07:36:39.369Z,415
2016-07-03T07:37:38.817Z,1090
2016-07-03T07:38:38.842Z,320
2016-07-03T07:39:53.780Z,1200
2016-07-03T07:40:38.922Z,1180
2016-07-03T07:41:39.057Z,1140
2016-07-03T07:42:38.997Z,1175
2016-07-03T07:43:39.033Z,1085
2016-07-03T07:44:39.068Z,1070
2016-07-03T07:45:54.008Z,580
2016-07-03T07:46:54.043Z,400
2016-07-03T07:47:39.185Z,275
2016-07-03T07:48:39.222Z,265
2016-07-03T07:49:39.249Z,1035
2016-07-03T07:50:54.191Z,920
2016-07-03T07:51:39.325Z,1010
2016-07-03T07:52:39.361Z,705
2016-07-03T07:53:39.394Z,305
2016-07-03T07:54:39.431Z,335
2016-07-03T07:55:54.368Z,745
2016-07-03T07:57:39.530Z,955
2016-07-03T07:58:54.474Z,830
2016-07-03T07:59:40.199Z,915
2016-07-03T08:01:39.672Z,910
2016-07-03T08:02:39.709Z,865
2016-07-03T08:03:54.655Z,825
2016-07-03T08:05:39.806Z,775
2016-07-03T08:06:54.752Z,820
2016-07-03T08:07:54.785Z,780
2016-07-03T08:08:39.926Z,625
2016-07-03T08:09:54.856Z,465
2016-07-03T08:10:39.990Z,680
2016-07-03T08:11:40.020Z,860
2016-07-03T08:12:40.065Z,845
2016-07-03T08:13:40.095Z,625
2016-07-03T08:14:40.133Z,710
2016-07-03T08:15:40.170Z,780
2016-07-03T08:17:55.149Z,700
2016-07-03T08:18:40.281Z,725
2016-07-03T08:19:40.311Z,700
2016-07-03T08:20:55.257Z,725
2016-07-03T08:21:40.398Z,680
2016-07-03T08:22:55.327Z,635
2016-07-03T08:23:40.458Z,670
2016-07-03T08:24:40.486Z,635
2016-07-03T08:25:40.534Z,635
2016-07-03T08:26:55.465Z,600
2016-07-03T08:27:40.593Z,590
2016-07-03T08:28:40.637Z,600
2016-07-03T08:29:40.677Z,645
2016-07-03T08:30:40.706Z,575
2016-07-03T08:31:40.755Z,610
2016-07-03T08:32:40.787Z,575
2016-07-03T08:33:40.826Z,590
2016-07-03T08:34:40.854Z,585
2016-07-03T08:36:40.929Z,520
2016-07-03T08:38:55.900Z,470
2016-07-03T08:39:41.040Z,475
2016-07-03T08:40:55.979Z,580
2016-07-03T08:41:41.100Z,535
2016-07-03T08:42:41.132Z,290
2016-07-03T08:43:56.072Z,425
2016-07-03T08:44:41.203Z,515
2016-07-03T08:45:41.234Z,340
2016-07-03T08:46:41.275Z,255
2016-07-03T08:47:41.311Z,335
2016-07-03T08:48:41.353Z,435
2016-07-03T08:49:41.376Z,450
2016-07-03T08:50:56.320Z,495
2016-07-03T08:51:41.446Z,340
2016-07-03T08:52:41.489Z,355
2016-07-03T08:54:11.324Z,535
2016-07-03T08:54:41.571Z,335
2016-07-03T08:55:42.194Z,585
2016-07-03T08:56:41.627Z,330
2016-07-03T08:58:42.283Z,315
2016-07-03T08:59:41.721Z,335
2016-07-03T09:00:41.750Z,305
2016-07-03T09:01:41.775Z,285
2016-07-03T09:02:41.819Z,270
2016-07-03T09:03:41.849Z,255
2016-07-03T09:04:41.884Z,220
2016-07-03T09:05:41.924Z,190
2016-07-03T09:06:56.864Z,160
2016-07-03T09:07:41.991Z,155
2016-07-03T09:08:42.033Z,140
2016-07-03T09:09:56.956Z,130
2016-07-03T09:10:42.084Z,125
2016-07-03T09:11:57.026Z,125
2016-07-03T09:12:57.053Z,125
2016-07-03T09:14:42.221Z,130
2016-07-03T09:15:42.256Z,135
2016-07-03T09:16:42.296Z,145
2016-07-03T09:17:57.222Z,360
2016-07-03T09:18:57.246Z,375
2016-07-03T09:19:42.384Z,375
2016-07-03T09:20:42.422Z,375
2016-07-03T09:21:42.439Z,370
2016-07-03T09:22:42.476Z,375
2016-07-03T09:23:42.504Z,365
2016-07-03T09:24:42.530Z,355
2016-07-03T09:26:12.374Z,175
2016-07-03T09:26:42.604Z,170
2016-07-03T09:27:42.649Z,335
2016-07-03T09:28:42.666Z,335
2016-07-03T09:29:42.702Z,330
2016-07-03T09:30:43.338Z,190
2016-07-03T09:31:42.769Z,185
2016-07-03T09:32:42.793Z,205
2016-07-03T09:33:57.738Z,345
2016-07-03T09:34:42.858Z,360
2016-07-03T09:35:42.904Z,365
2016-07-03T09:36:58.437Z,355
2016-07-03T09:37:42.976Z,310
2016-07-03T09:38:57.896Z,335
2016-07-03T09:39:43.029Z,360
2016-07-03T09:40:43.054Z,335
2016-07-03T09:41:58.001Z,280
2016-07-03T09:42:43.122Z,230
2016-07-03T09:43:43.150Z,210
2016-07-03T09:44:58.093Z,340
2016-07-03T09:45:43.224Z,275
2016-07-03T09:46:58.154Z,250
2016-07-03T09:47:58.176Z,205
2016-07-03T09:48:58.203Z,180
2016-07-03T09:49:43.352Z,175
2016-07-03T09:50:43.387Z,165
2016-07-03T09:51:58.297Z,155
2016-07-03T09:53:43.466Z,165
2016-07-03T09:54:43.483Z,285
2016-07-03T09:55:43.549Z,235
2016-07-03T09:56:43.557Z,280
2016-07-03T09:57:58.491Z,170
2016-07-03T09:58:58.527Z,165
2016-07-03T09:59:43.667Z,160
2016-07-03T10:00:43.696Z,160
2016-07-03T10:01:43.731Z,315
2016-07-03T10:02:43.767Z,320
2016-07-03T10:03:43.787Z,305
2016-07-03T10:04:43.821Z,185
2016-07-03T10:05:43.853Z,185
2016-07-03T10:06:43.880Z,185
2016-07-03T10:07:44.517Z,210
2016-07-03T10:08:58.853Z,340
2016-07-03T10:09:43.986Z,340
2016-07-03T10:10:44.006Z,335
2016-07-03T10:11:58.957Z,330
2016-07-03T10:12:58.974Z,325
2016-07-03T10:14:59.035Z,325
2016-07-03T10:15:44.164Z,330
2016-07-03T10:16:44.191Z,330
2016-07-03T10:17:44.239Z,330
2016-07-03T10:18:44.261Z,325
2016-07-03T10:19:44.292Z,320
2016-07-03T10:20:44.324Z,320
2016-07-03T10:21:44.343Z,320
2016-07-03T10:22:59.278Z,195
2016-07-03T10:23:59.318Z,310
2016-07-03T10:24:59.356Z,315
2016-07-03T10:26:44.524Z,185
2016-07-03T10:27:44.537Z,330
2016-07-03T10:29:44.598Z,195
2016-07-03T10:31:44.666Z,200
2016-07-03T10:32:44.709Z,280
2016-07-03T10:33:59.645Z,215
2016-07-03T10:34:59.666Z,320
2016-07-03T10:35:44.805Z,315
2016-07-03T10:36:44.822Z,320
2016-07-03T10:37:59.761Z,185
2016-07-03T10:38:59.789Z,210
2016-07-03T10:39:59.822Z,305
2016-07-03T10:40:44.951Z,175
2016-07-03T10:41:44.997Z,165
2016-07-03T10:42:45.012Z,160
2016-07-03T10:43:45.043Z,155
2016-07-03T10:44:59.981Z,155
2016-07-03T10:46:00.008Z,155
2016-07-03T10:46:45.159Z,155
2016-07-03T10:47:45.192Z,155
2016-07-03T10:48:45.203Z,155
2016-07-03T10:49:45.213Z,150
2016-07-03T10:51:15.058Z,145
2016-07-03T10:51:45.276Z,145
2016-07-03T10:52:45.320Z,150
2016-07-03T10:53:45.340Z,155
2016-07-03T10:54:45.367Z,290
2016-07-03T10:58:45.498Z,305
2016-07-03T11:00:00.435Z,295
2016-07-03T11:01:15.369Z,290
2016-07-03T11:01:45.587Z,295
2016-07-03T11:03:00.524Z,280
2016-07-03T11:03:45.646Z,270
2016-07-03T11:04:45.684Z,265
2016-07-03T11:05:45.724Z,265
2016-07-03T11:06:45.742Z,145
2016-07-03T11:07:45.791Z,145
2016-07-03T11:08:45.805Z,145
2016-07-03T11:09:45.846Z,150
2016-07-03T11:10:45.867Z,160
2016-07-03T11:11:45.907Z,275
2016-07-03T11:12:45.926Z,155
2016-07-03T11:13:45.966Z,155
2016-07-03T11:14:45.983Z,155
2016-07-03T11:16:00.925Z,160
2016-07-03T11:17:00.943Z,160
2016-07-03T11:17:46.084Z,160
2016-07-03T11:20:01.043Z,155
2016-07-03T11:20:46.167Z,155
2016-07-03T11:21:46.208Z,155
2016-07-03T11:23:01.128Z,160
2016-07-03T11:23:46.266Z,260
2016-07-03T11:24:46.292Z,255
2016-07-03T11:25:46.314Z,250
2016-07-03T11:26:46.335Z,250
2016-07-03T11:27:46.376Z,245
2016-07-03T11:28:46.415Z,245
2016-07-03T11:29:46.443Z,245
2016-07-03T11:30:46.476Z,240
2016-07-03T11:31:46.501Z,145
2016-07-03T11:33:01.430Z,200
2016-07-03T11:34:46.595Z,190
2016-07-03T11:35:46.624Z,155
2016-07-03T11:36:46.661Z,250
2016-07-03T11:37:46.690Z,195
2016-07-03T11:38:46.717Z,235
2016-07-03T11:39:46.747Z,230
2016-07-03T11:40:46.773Z,220
2016-07-03T11:41:46.813Z,215
2016-07-03T11:42:46.841Z,120
2016-07-03T11:43:46.865Z,120
2016-07-03T11:44:46.897Z,120
2016-07-03T11:45:46.929Z,125
2016-07-03T11:46:46.951Z,165
2016-07-03T11:47:46.999Z,210
2016-07-03T11:49:16.814Z,210
2016-07-03T11:49:47.041Z,215
2016-07-03T11:50:47.079Z,140
2016-07-03T11:51:47.096Z,135
2016-07-03T11:52:47.143Z,205
2016-07-03T11:53:47.164Z,185
2016-07-03T11:55:02.081Z,210
2016-07-03T11:55:47.220Z,215
2016-07-03T11:56:47.268Z,215
2016-07-03T11:57:47.270Z,215
2016-07-03T11:58:47.308Z,210
2016-07-03T12:00:02.239Z,145
2016-07-03T12:00:47.371Z,210
2016-07-03T12:01:47.406Z,220
2016-07-03T12:02:48.036Z,220
2016-07-03T12:04:02.367Z,145
2016-07-03T12:04:47.490Z,145
2016-07-03T12:05:47.527Z,140
2016-07-03T12:07:02.452Z,215
2016-07-03T12:07:47.570Z,140
2016-07-03T12:09:47.631Z,215
2016-07-03T12:10:47.665Z,180
2016-07-03T12:11:47.696Z,215
2016-07-03T12:12:47.724Z,220
2016-07-03T12:13:48.350Z,225
2016-07-03T12:14:47.777Z,225
2016-07-03T12:16:02.708Z,230
2016-07-03T12:16:47.837Z,225
2016-07-03T12:17:47.871Z,225
2016-07-03T12:18:47.902Z,225
2016-07-03T12:19:47.925Z,225
2016-07-03T12:20:47.959Z,230
2016-07-03T12:21:48.582Z,230
2016-07-03T12:22:48.627Z,240
2016-07-03T12:23:48.030Z,235
2016-07-03T12:24:48.074Z,235
2016-07-03T12:25:48.100Z,240
2016-07-03T12:26:48.142Z,240
2016-07-03T12:27:48.152Z,230
2016-07-03T12:28:48.198Z,245
2016-07-03T12:29:48.214Z,235
2016-07-03T12:30:48.260Z,240
2016-07-03T12:31:48.279Z,245
2016-07-03T12:33:03.209Z,245
2016-07-03T12:33:48.334Z,235
2016-07-03T12:34:48.377Z,240
2016-07-03T12:36:03.302Z,245
2016-07-03T12:36:48.430Z,245
2016-07-03T12:37:48.453Z,230
2016-07-03T12:38:48.491Z,250
2016-07-03T12:39:48.511Z,255
2016-07-03T12:41:04.051Z,145
2016-07-03T12:42:48.597Z,240
2016-07-03T12:44:03.533Z,200
2016-07-03T12:45:03.570Z,135
2016-07-03T12:45:48.694Z,135
2016-07-03T12:46:48.733Z,135
2016-07-03T12:48:48.794Z,140
2016-07-03T12:50:03.708Z,145
2016-07-03T12:50:48.852Z,155
2016-07-03T12:52:03.774Z,165
2016-07-03T12:52:48.905Z,240
2016-07-03T12:53:48.928Z,270
2016-07-03T12:54:48.977Z,285
2016-07-03T12:55:49.594Z,290
2016-07-03T12:56:49.015Z,295
2016-07-03T12:57:49.043Z,290
2016-07-03T12:59:03.981Z,305
2016-07-03T13:00:04.011Z,180
2016-07-03T13:00:49.148Z,185
2016-07-03T13:01:49.157Z,175
2016-07-03T13:02:49.190Z,175
2016-07-03T13:03:49.219Z,205
2016-07-03T13:04:49.251Z,265
2016-07-03T13:05:49.284Z,175
2016-07-03T13:06:49.312Z,180
2016-07-03T13:08:04.842Z,275
2016-07-03T13:09:49.407Z,270
2016-07-03T13:11:04.327Z,275
2016-07-03T13:11:49.459Z,175
2016-07-03T13:12:49.492Z,170
2016-07-03T13:14:04.419Z,170
2016-07-03T13:15:04.456Z,165
2016-07-03T13:15:49.572Z,165
2016-07-03T13:16:49.612Z,165
2016-07-03T13:17:49.645Z,165
2016-07-03T13:18:50.264Z,165
2016-07-03T13:20:04.597Z,170
2016-07-03T13:20:49.733Z,170
2016-07-03T13:21:49.751Z,175
2016-07-03T13:23:04.682Z,185
2016-07-03T13:24:04.712Z,200
2016-07-03T13:24:49.837Z,205
2016-07-03T13:25:49.862Z,205
2016-07-03T13:26:49.906Z,205
2016-07-03T13:27:49.929Z,205
2016-07-03T13:30:04.889Z,205
2016-07-03T13:30:50.014Z,320
2016-07-03T13:31:50.041Z,310
2016-07-03T13:32:50.089Z,320
2016-07-03T13:33:50.101Z,310
2016-07-03T13:35:05.033Z,315
2016-07-03T13:35:50.171Z,310
2016-07-03T13:36:50.203Z,280
2016-07-03T13:37:50.224Z,310
2016-07-03T13:39:20.053Z,295
2016-07-03T13:39:50.289Z,290
2016-07-03T13:40:50.307Z,280
2016-07-03T13:41:50.341Z,275
2016-07-03T13:43:05.270Z,280
2016-07-03T13:43:50.410Z,260
2016-07-03T13:44:50.438Z,260
2016-07-03T13:45:50.464Z,260
2016-07-03T13:47:50.521Z,245
2016-07-03T13:48:50.569Z,250
2016-07-03T13:49:50.579Z,235
2016-07-03T13:50:50.605Z,235
2016-07-03T13:51:50.633Z,225
2016-07-03T13:52:50.657Z,220
2016-07-03T13:53:50.696Z,220
2016-07-03T13:55:05.627Z,220
2016-07-03T13:55:50.761Z,220
2016-07-03T13:56:50.794Z,220
2016-07-03T13:57:50.819Z,210
2016-07-03T13:58:50.846Z,120
2016-07-03T13:59:50.871Z,115
2016-07-03T14:01:05.808Z,165
2016-07-03T14:01:50.932Z,215
2016-07-03T14:03:05.864Z,215
2016-07-03T14:03:50.983Z,210
2016-07-03T14:04:51.008Z,205
2016-07-03T14:05:51.053Z,205
2016-07-03T14:06:51.088Z,205
2016-07-03T14:07:51.147Z,205
2016-07-03T14:08:51.125Z,205
2016-07-03T14:10:06.063Z,200
2016-07-03T14:11:06.098Z,200
2016-07-03T14:12:51.247Z,195
2016-07-03T14:14:51.311Z,195
2016-07-03T14:17:06.272Z,190
2016-07-03T14:18:06.299Z,190
2016-07-03T14:18:51.412Z,190
2016-07-03T14:19:51.448Z,190
2016-07-03T14:20:51.485Z,190
2016-07-03T14:21:51.508Z,190
2016-07-03T14:24:06.468Z,190
2016-07-03T14:24:51.586Z,190
2016-07-03T14:25:51.622Z,190
2016-07-03T14:27:06.558Z,170
2016-07-03T14:27:51.693Z,180
2016-07-03T14:28:51.723Z,190
2016-07-03T14:29:51.740Z,190
2016-07-03T14:30:51.769Z,170
2016-07-03T14:31:51.805Z,150
2016-07-03T14:32:51.843Z,105
2016-07-03T14:34:06.749Z,105
2016-07-03T14:34:51.862Z,105
2016-07-03T14:35:51.908Z,105
2016-07-03T14:36:51.941Z,105
2016-07-03T14:37:51.981Z,100
2016-07-03T14:38:51.985Z,105
2016-07-03T14:39:52.020Z,105
2016-07-03T14:40:52.052Z,100
2016-07-03T14:41:52.095Z,100
2016-07-03T14:43:07.002Z,100
2016-07-03T14:43:52.149Z,100
2016-07-03T14:44:52.176Z,100
2016-07-03T14:47:07.123Z,100
2016-07-03T14:47:52.270Z,100
2016-07-03T14:49:07.175Z,105
2016-07-03T14:50:07.212Z,110
2016-07-03T14:50:52.326Z,115
2016-07-03T14:51:52.364Z,125
2016-07-03T14:52:52.408Z,125
2016-07-03T14:53:52.431Z,130
2016-07-03T14:54:53.056Z,220
2016-07-03T14:55:52.481Z,220
2016-07-03T14:56:52.513Z,210
2016-07-03T14:57:52.536Z,145
2016-07-03T14:59:07.464Z,145
2016-07-03T14:59:52.580Z,145
2016-07-03T15:00:52.627Z,145
2016-07-03T15:01:52.646Z,150
2016-07-03T15:02:52.683Z,170